createdAt,value
2022-09-01T00:00:34.764Z,16.40
2022-09-01T00:03:36.990Z,16.40
2022-09-01T00:06:40.655Z,16.30
2022-09-01T00:09:42.437Z,16.30
2022-09-01T00:12:47.780Z,16.20
2022-09-01T00:15:49.460Z,16.10
2022-09-01T00:18:53.686Z,16.10
2022-09-01T00:21:56.204Z,16.00
2022-09-01T00:24:57.909Z,15.90
2022-09-01T00:28:03.717Z,15.90
2022-09-01T00:31:07.759Z,15.90
2022-09-01T00:34:09.443Z,15.90
2022-09-01T00:37:11.218Z,15.90
2022-09-01T00:40:15.358Z,15.80
2022-09-01T00:43:37.440Z,15.70
2022-09-01T00:46:49.555Z,15.70
2022-09-01T00:49:52.196Z,15.60
2022-09-01T00:52:55.458Z,15.60
2022-09-01T00:55:57.391Z,15.60
2022-09-01T00:59:00.011Z,15.50
2022-09-01T01:02:01.653Z,15.50
2022-09-01T01:05:06.231Z,15.50
2022-09-01T01:08:11.663Z,15.50
2022-09-01T01:11:18.192Z,15.50
2022-09-01T01:14:20.091Z,15.40
2022-09-01T01:17:23.299Z,15.50
2022-09-01T01:20:48.433Z,15.40
2022-09-01T01:24:01.152Z,15.40
2022-09-01T01:27:04.786Z,15.40
2022-09-01T01:30:11.033Z,15.30
2022-09-01T01:33:15.247Z,15.40
2022-09-01T01:36:29.095Z,15.40
2022-09-01T01:39:30.808Z,15.30
2022-09-01T01:42:35.453Z,15.30
2022-09-01T01:45:37.107Z,15.30
2022-09-01T01:48:41.546Z,15.30
2022-09-01T01:51:45.205Z,15.30
2022-09-01T01:54:47.463Z,15.20
2022-09-01T01:57:49.964Z,15.20
2022-09-01T02:00:54.161Z,15.20
2022-09-01T02:03:56.920Z,15.10
2022-09-01T02:07:01.889Z,15.10
2022-09-01T02:10:03.970Z,15.00
2022-09-01T02:13:07.559Z,15.00
2022-09-01T02:16:13.536Z,14.90
2022-09-01T02:19:19.481Z,14.90
2022-09-01T02:22:21.665Z,14.90
2022-09-01T02:25:23.324Z,14.80
2022-09-01T02:28:24.937Z,14.80
2022-09-01T02:31:27.821Z,14.80
2022-09-01T02:34:29.511Z,14.80
2022-09-01T02:37:31.164Z,14.70
2022-09-01T02:40:33.619Z,14.70
2022-09-01T02:43:35.500Z,14.70
2022-09-01T02:46:44.240Z,14.70
2022-09-01T02:49:46.569Z,14.70
2022-09-01T02:52:52.191Z,14.60
2022-09-01T02:55:53.944Z,14.60
2022-09-01T02:58:55.666Z,14.60
2022-09-01T03:01:57.468Z,14.50
2022-09-01T03:04:59.146Z,14.50
2022-09-01T03:08:04.283Z,14.50
2022-09-01T03:11:13.159Z,14.50
2022-09-01T03:14:17.171Z,14.50
2022-09-01T03:17:18.868Z,14.40
2022-09-01T03:20:21.649Z,14.40
2022-09-01T03:23:25.277Z,14.40
2022-09-01T03:26:27.073Z,14.30
2022-09-01T03:29:28.782Z,14.30
2022-09-01T03:32:30.445Z,14.30
2022-09-01T03:35:32.275Z,14.30
2022-09-01T03:38:34.177Z,14.20
2022-09-01T03:41:36.947Z,14.20
2022-09-01T03:44:40.226Z,14.20
2022-09-01T03:47:45.171Z,14.20
2022-09-01T03:50:47.158Z,14.20
2022-09-01T03:53:49.703Z,14.10
2022-09-01T03:56:51.385Z,14.10
2022-09-01T03:59:54.199Z,14.10
2022-09-01T04:02:59.121Z,14.20
2022-09-01T04:06:02.327Z,14.20
2022-09-01T04:09:03.941Z,14.20
2022-09-01T04:12:08.931Z,14.20
2022-09-01T04:15:12.086Z,14.20
2022-09-01T04:18:20.472Z,14.20
2022-09-01T04:21:22.530Z,14.20
2022-09-01T04:24:27.961Z,14.20
2022-09-01T04:27:29.630Z,14.30
2022-09-01T04:30:33.685Z,14.30
2022-09-01T04:33:39.949Z,14.40
2022-09-01T04:36:44.726Z,14.40
2022-09-01T04:39:56.581Z,14.40
2022-09-01T04:42:58.632Z,14.50
2022-09-01T04:46:01.020Z,14.50
2022-09-01T04:49:08.061Z,14.50
2022-09-01T04:52:14.929Z,14.50
2022-09-01T04:55:19.474Z,14.50
2022-09-01T04:58:22.038Z,14.50
2022-09-01T05:01:26.108Z,14.50
2022-09-01T05:04:33.742Z,14.50
2022-09-01T05:07:36.798Z,14.60
2022-09-01T05:10:42.013Z,14.60
2022-09-01T05:13:48.224Z,14.60
2022-09-01T05:16:51.155Z,14.70
2022-09-01T05:19:54.358Z,14.80
2022-09-01T05:22:57.581Z,14.90
2022-09-01T05:26:01.293Z,14.90
2022-09-01T05:29:10.453Z,15.00
2022-09-01T05:32:12.552Z,15.00
2022-09-01T05:35:14.607Z,15.10
2022-09-01T05:38:16.299Z,15.10
2022-09-01T05:41:19.446Z,15.10
2022-09-01T05:44:22.892Z,15.20
2022-09-01T05:47:26.153Z,15.20
2022-09-01T05:50:28.179Z,15.40
2022-09-01T05:53:31.034Z,15.30
2022-09-01T05:56:32.759Z,15.30
2022-09-01T05:59:34.503Z,15.40
2022-09-01T06:02:37.604Z,15.50
2022-09-01T06:05:39.882Z,15.60
2022-09-01T06:08:46.764Z,15.50
2022-09-01T06:11:49.106Z,15.50
2022-09-01T06:14:55.789Z,15.60
2022-09-01T06:17:57.950Z,15.70
2022-09-01T06:20:59.736Z,15.70
2022-09-01T06:24:01.329Z,15.80
2022-09-01T06:27:03.035Z,15.90
2022-09-01T06:30:14.672Z,16.10
2022-09-01T06:33:16.712Z,16.10
2022-09-01T06:36:18.776Z,16.20
2022-09-01T06:39:20.425Z,16.10
2022-09-01T06:42:23.549Z,16.30
2022-09-01T06:45:28.027Z,16.30
2022-09-01T06:48:30.822Z,16.50
2022-09-01T06:51:33.996Z,16.60
2022-09-01T06:54:36.394Z,16.70
2022-09-01T07:01:15.523Z,16.70
2022-09-01T07:04:21.294Z,16.90
2022-09-01T07:14:16.436Z,17.30
2022-09-01T07:17:22.974Z,17.40
2022-09-01T07:21:02.717Z,17.50
2022-09-01T07:24:10.906Z,17.60
2022-09-01T07:27:13.044Z,17.80
2022-09-01T07:30:15.147Z,18.00
2022-09-01T07:43:34.068Z,19.20
2022-09-01T07:46:37.355Z,19.50
2022-09-01T07:50:11.372Z,19.50
2022-09-01T07:53:01.882Z,19.50
2022-09-01T07:56:09.521Z,19.70
2022-09-01T07:59:14.852Z,19.80
2022-09-01T08:02:18.062Z,19.90
2022-09-01T08:05:26.254Z,19.90
2022-09-01T08:08:29.319Z,19.80
2022-09-01T08:15:12.684Z,19.90
2022-09-01T08:18:15.434Z,20.10
2022-09-01T08:21:18.510Z,20.10
2022-09-01T08:24:20.225Z,20.10
2022-09-01T08:27:21.942Z,20.30
2022-09-01T08:30:23.548Z,20.30
2022-09-01T08:33:26.071Z,20.30
2022-09-01T08:36:27.741Z,20.40
2022-09-01T08:39:29.382Z,20.60
2022-09-01T08:42:45.021Z,21.00
2022-09-01T08:45:55.876Z,20.90
2022-09-01T08:52:35.150Z,21.10
2022-09-01T08:55:44.870Z,21.30
2022-09-01T08:58:47.047Z,21.30
2022-09-01T09:01:55.268Z,21.30
2022-09-01T09:04:56.877Z,21.30
2022-09-01T09:08:10.673Z,21.20
2022-09-01T09:11:41.999Z,21.10
2022-09-01T09:15:16.399Z,21.40
2022-09-01T09:18:55.585Z,21.60
2022-09-01T09:22:00.707Z,21.60
2022-09-01T09:25:12.520Z,21.90
2022-09-01T09:28:14.133Z,22.10
2022-09-01T09:31:32.286Z,22.20
2022-09-01T09:34:41.934Z,22.20
2022-09-01T09:37:43.729Z,22.10
2022-09-01T09:41:25.632Z,22.00
2022-09-01T09:44:32.775Z,21.80
2022-09-01T09:47:44.527Z,21.80
2022-09-01T09:50:46.571Z,21.90
2022-09-01T09:53:49.082Z,21.80
2022-09-01T09:57:22.148Z,22.00
2022-09-01T10:00:34.193Z,22.20
2022-09-01T10:03:48.978Z,22.40
2022-09-01T10:06:53.757Z,22.50
2022-09-01T10:09:58.016Z,22.70
2022-09-01T10:13:00.623Z,22.60
2022-09-01T10:16:32.168Z,22.70
2022-09-01T10:19:35.946Z,23.00
2022-09-01T10:22:39.537Z,23.20
2022-09-01T10:25:47.573Z,23.70
2022-09-01T10:28:55.183Z,23.60
2022-09-01T10:32:28.017Z,23.30
2022-09-01T10:35:23.919Z,23.00
2022-09-01T10:38:28.230Z,23.40
2022-09-01T10:42:00.165Z,23.50
2022-09-01T10:45:02.923Z,23.70
2022-09-01T10:48:30.569Z,24.10
2022-09-01T10:51:51.515Z,24.60
2022-09-01T10:55:00.257Z,24.80
2022-09-01T11:02:26.905Z,24.50
2022-09-01T11:06:14.415Z,24.70
2022-09-01T11:09:29.979Z,24.70
2022-09-01T11:12:52.480Z,24.60
2022-09-01T11:15:54.623Z,24.60
2022-09-01T11:19:34.953Z,24.70
2022-09-01T11:22:59.091Z,24.70
2022-09-01T11:26:20.905Z,24.80
2022-09-01T11:29:52.179Z,24.90
2022-09-01T11:33:02.505Z,24.90
2022-09-01T11:36:12.507Z,24.90
2022-09-01T11:39:14.072Z,24.60
2022-09-01T11:42:25.799Z,24.50
2022-09-01T11:45:32.931Z,24.60
2022-09-01T11:48:34.691Z,24.60
2022-09-01T11:51:47.556Z,24.60
2022-09-01T11:54:50.252Z,24.90
2022-09-01T11:57:51.859Z,25.00
2022-09-01T12:01:00.436Z,25.00
2022-09-01T12:04:26.508Z,24.90
2022-09-01T12:07:46.622Z,25.20
2022-09-01T12:10:48.514Z,25.30
2022-09-01T12:14:10.926Z,25.40
2022-09-01T12:17:20.465Z,25.60
2022-09-01T12:20:31.743Z,25.60
2022-09-01T12:23:40.390Z,25.80
2022-09-01T12:26:42.518Z,25.80
2022-09-01T12:29:45.079Z,26.10
2022-09-01T12:32:47.445Z,25.70
2022-09-01T12:35:49.130Z,25.70
2022-09-01T12:38:53.382Z,25.80
2022-09-01T12:42:09.813Z,25.60
2022-09-01T12:45:12.876Z,25.70
2022-09-01T12:48:36.704Z,25.90
2022-09-01T12:51:38.374Z,25.90
2022-09-01T12:54:40.134Z,26.10
2022-09-01T12:57:51.215Z,26.30
2022-09-01T13:01:03.141Z,26.50
2022-09-01T13:04:22.504Z,26.40
2022-09-01T13:07:24.147Z,26.50
2022-09-01T13:10:30.878Z,26.40
2022-09-01T13:13:39.611Z,26.20
2022-09-01T13:16:41.646Z,26.60
2022-09-01T13:19:43.299Z,26.70
2022-09-01T13:22:48.680Z,26.20
2022-09-01T13:25:51.089Z,25.90
2022-09-01T13:28:53.858Z,25.80
2022-09-01T13:35:21.773Z,25.60
2022-09-01T13:38:23.875Z,25.60
2022-09-01T13:41:26.068Z,25.60
2022-09-01T13:44:28.347Z,25.70
2022-09-01T13:47:30.635Z,25.90
2022-09-01T13:51:14.610Z,26.20
2022-09-01T13:53:54.523Z,26.50
2022-09-01T13:56:56.137Z,26.60
2022-09-01T13:59:58.637Z,26.70
2022-09-01T14:03:04.542Z,26.80
2022-09-01T14:06:06.521Z,27.00
2022-09-01T14:09:08.246Z,27.20
2022-09-01T14:12:09.858Z,27.30
2022-09-01T14:15:15.927Z,27.20
2022-09-01T14:18:19.155Z,27.00
2022-09-01T14:21:20.921Z,27.10
2022-09-01T14:24:22.614Z,27.30
2022-09-01T14:27:24.244Z,27.30
2022-09-01T14:30:31.437Z,27.10
2022-09-01T14:33:34.181Z,26.70
2022-09-01T14:36:35.851Z,26.70
2022-09-01T14:39:38.562Z,26.70
2022-09-01T14:42:41.317Z,26.80
2022-09-01T14:45:48.041Z,27.00
2022-09-01T14:48:50.675Z,27.10
2022-09-01T14:55:14.424Z,27.20
2022-09-01T14:58:16.972Z,26.90
2022-09-01T15:01:33.888Z,26.70
2022-09-01T15:04:36.193Z,26.50
2022-09-01T15:07:38.989Z,26.40
2022-09-01T15:10:40.894Z,26.30
2022-09-01T15:13:45.247Z,26.30
2022-09-01T15:16:47.106Z,26.30
2022-09-01T15:19:49.431Z,26.20
2022-09-01T15:22:51.543Z,26.10
2022-09-01T15:49:39.587Z,26.90
2022-09-01T16:07:03.907Z,27.10
2022-09-01T16:10:11.184Z,27.60
2022-09-01T16:13:12.925Z,27.80
2022-09-01T16:16:52.524Z,27.90
2022-09-01T16:20:07.880Z,27.70
2022-09-01T16:23:19.584Z,27.60
2022-09-01T16:26:23.110Z,27.50
2022-09-01T16:29:51.527Z,27.40
2022-09-01T16:32:53.554Z,27.50
2022-09-01T16:36:40.839Z,27.30
2022-09-01T16:39:48.185Z,27.00
2022-09-01T16:43:06.710Z,27.10
2022-09-01T16:46:21.327Z,27.40
2022-09-01T16:49:50.275Z,27.50
2022-09-01T16:53:28.294Z,27.70
2022-09-01T16:56:35.273Z,27.80
2022-09-01T16:59:55.641Z,27.90
2022-09-01T17:03:19.302Z,27.80
2022-09-01T17:06:26.801Z,27.70
2022-09-01T17:09:38.890Z,27.60
2022-09-01T17:12:51.764Z,27.50
2022-09-01T17:16:08.094Z,27.40
2022-09-01T17:19:16.231Z,27.10
2022-09-01T17:22:20.102Z,27.10
2022-09-01T17:25:33.373Z,27.00
2022-09-01T17:28:43.686Z,26.80
2022-09-01T17:32:04.135Z,26.60
2022-09-01T17:35:29.798Z,26.40
2022-09-01T17:38:54.138Z,25.90
2022-09-01T17:42:04.508Z,25.50
2022-09-01T17:45:29.222Z,25.20
2022-09-01T17:48:54.241Z,24.90
2022-09-01T17:52:15.120Z,24.70
2022-09-01T17:55:44.352Z,24.30
2022-09-01T17:59:03.901Z,23.90
2022-09-01T18:02:47.075Z,23.80
2022-09-01T18:05:54.901Z,23.60
2022-09-01T18:08:58.484Z,23.50
2022-09-01T18:12:09.619Z,23.40
2022-09-01T18:15:21.434Z,23.20
2022-09-01T18:18:30.001Z,23.20
2022-09-01T18:21:36.277Z,23.10
2022-09-01T18:24:52.022Z,23.00
2022-09-01T18:27:53.732Z,22.90
2022-09-01T18:31:34.780Z,22.80
2022-09-01T18:34:59.688Z,22.70
2022-09-01T18:38:13.135Z,22.60
2022-09-01T18:41:44.249Z,22.60
2022-09-01T18:45:07.522Z,22.50
2022-09-01T18:48:30.937Z,22.40
2022-09-01T18:51:45.886Z,22.30
2022-09-01T18:55:08.438Z,22.20
2022-09-01T18:58:26.390Z,22.10
2022-09-01T19:01:33.536Z,22.00
2022-09-01T19:04:42.268Z,21.90
2022-09-01T19:07:51.083Z,21.90
2022-09-01T19:11:12.613Z,21.80
2022-09-01T19:14:34.767Z,21.80
2022-09-01T19:18:07.108Z,21.80
2022-09-01T19:21:43.613Z,21.80
2022-09-01T19:25:17.462Z,21.80
2022-09-01T19:28:46.974Z,21.80
2022-09-01T19:31:53.120Z,21.80
2022-09-01T19:35:12.029Z,21.80
2022-09-01T19:38:27.362Z,21.80
2022-09-01T19:41:38.916Z,21.80
2022-09-01T19:45:07.524Z,21.80
2022-09-01T19:49:02.414Z,21.80
2022-09-01T19:52:15.691Z,21.70
2022-09-01T19:55:32.845Z,21.70
2022-09-01T19:59:00.161Z,21.70
2022-09-01T20:02:28.307Z,21.60
2022-09-01T20:05:42.066Z,21.60
2022-09-01T20:09:18.864Z,21.50
2022-09-01T20:12:42.973Z,21.50
2022-09-01T20:16:12.054Z,21.50
2022-09-01T20:19:45.254Z,21.40
2022-09-01T20:23:15.085Z,21.30
2022-09-01T20:26:50.901Z,21.30
2022-09-01T20:30:09.919Z,21.20
2022-09-01T20:33:24.685Z,21.20
2022-09-01T20:37:01.569Z,21.10
2022-09-01T20:40:24.556Z,21.00
2022-09-01T20:43:57.829Z,21.10
2022-09-01T20:47:00.216Z,21.10
2022-09-01T20:50:09.613Z,21.00
2022-09-01T20:53:54.450Z,21.00
2022-09-01T20:57:28.545Z,21.00
2022-09-01T21:00:36.864Z,20.90
2022-09-01T21:03:54.539Z,20.80
2022-09-01T21:07:31.711Z,20.70
2022-09-01T21:10:48.189Z,20.70
2022-09-01T21:14:16.057Z,20.70
2022-09-01T21:17:41.806Z,20.60
2022-09-01T21:21:07.940Z,20.60
2022-09-01T21:24:13.172Z,20.60
2022-09-01T21:27:23.448Z,20.50
2022-09-01T21:30:55.247Z,20.50
2022-09-01T21:33:56.897Z,20.40
2022-09-01T21:37:01.437Z,20.40
2022-09-01T21:40:04.525Z,20.40
2022-09-01T21:43:12.271Z,20.30
2022-09-01T21:46:15.522Z,20.30
2022-09-01T21:49:17.477Z,20.20
2022-09-01T21:52:21.769Z,20.20
2022-09-01T21:55:24.133Z,20.10
2022-09-01T21:58:25.773Z,20.10
2022-09-01T22:01:33.914Z,20.00
2022-09-01T22:04:36.990Z,19.90
2022-09-01T22:07:40.404Z,19.80
2022-09-01T22:10:49.032Z,19.80
2022-09-01T22:13:50.720Z,19.70
2022-09-01T22:16:52.437Z,19.60
2022-09-01T22:19:54.157Z,19.40
2022-09-01T22:22:57.849Z,19.10
2022-09-01T22:25:59.498Z,18.90
2022-09-01T22:29:04.298Z,18.70
2022-09-01T22:32:06.059Z,18.60
2022-09-01T22:35:10.170Z,18.50
2022-09-01T22:38:12.638Z,18.40
2022-09-01T22:41:18.913Z,18.30
2022-09-01T22:44:21.063Z,18.30
2022-09-01T22:47:22.742Z,18.20
2022-09-01T22:50:24.337Z,18.10
2022-09-01T22:53:25.979Z,18.10
2022-09-01T22:56:32.002Z,18.10
2022-09-01T22:59:33.795Z,18.00
2022-09-01T23:02:36.023Z,18.00
2022-09-01T23:05:37.714Z,18.00
2022-09-01T23:08:40.525Z,18.00
2022-09-01T23:11:42.473Z,18.00
2022-09-01T23:14:44.132Z,17.90
2022-09-01T23:17:45.827Z,17.90
2022-09-01T23:20:47.424Z,17.80
2022-09-01T23:23:55.181Z,17.70
2022-09-01T23:27:00.464Z,17.60
2022-09-01T23:30:03.024Z,17.60
2022-09-01T23:33:04.607Z,17.60
2022-09-01T23:36:08.892Z,17.50
2022-09-01T23:39:10.534Z,17.50
2022-09-01T23:42:12.252Z,17.40
2022-09-01T23:45:14.039Z,17.40
2022-09-01T23:48:16.506Z,17.30
2022-09-01T23:51:18.788Z,17.30
2022-09-01T23:54:21.093Z,17.30
2022-09-01T23:57:23.280Z,17.30
